Time;durP1;ratioP1;P1;durP2;ratioP2;P2;SDS_P1;SDS_P2;PMS_P1;PMS_P2;Temp;Humidity;BMP_temperature;BMP_pressure;BME280_temperature;BME280_humidity;BME280_pressure;Samples;Min_cycle;Max_cycle;Signal;HPM_P1;HPM_P2
2021/04/28 00:00:33;;;;;;;5.65;4.00;;;6.70;99.90;;;;;;5055825;28;20303;-84
2021/04/28 00:03:00;;;;;;;5.47;3.88;;;6.80;99.90;;;;;;5055966;28;20153;-82
2021/04/28 00:05:26;;;;;;;7.20;3.88;;;6.70;99.90;;;;;;5054366;28;20170;-83
2021/04/28 00:07:53;;;;;;;6.70;4.53;;;6.60;99.90;;;;;;5055717;28;20176;-83
2021/04/28 00:10:23;;;;;;;5.45;4.40;;;6.60;99.90;;;;;;5055579;28;20656;-83
2021/04/28 00:12:48;;;;;;;10.85;5.40;;;6.60;99.90;;;;;;5056181;28;20166;-85
2021/04/28 00:15:17;;;;;;;9.63;5.77;;;6.60;99.90;;;;;;5055740;28;20207;-89
2021/04/28 00:17:44;;;;;;;10.73;5.80;;;6.50;99.90;;;;;;5055763;28;20185;-87
2021/04/28 00:20:12;;;;;;;12.40;6.03;;;6.50;99.90;;;;;;5055661;28;20244;-86
2021/04/28 00:22:39;;;;;;;10.80;5.57;;;6.40;99.90;;;;;;5055704;28;20173;-84
2021/04/28 00:25:10;;;;;;;11.70;5.90;;;6.40;99.90;;;;;;5055341;28;20162;-85
2021/04/28 00:27:36;;;;;;;18.20;6.30;;;6.30;99.90;;;;;;5055509;28;20223;-88
2021/04/28 00:30:05;;;;;;;10.77;7.10;;;6.30;99.90;;;;;;5055337;28;20197;-85
2021/04/28 00:32:31;;;;;;;12.30;6.97;;;6.30;99.90;;;;;;5056560;28;20408;-85
2021/04/28 00:34:57;;;;;;;9.13;6.10;;;6.30;99.90;;;;;;5053987;28;20179;-88
2021/04/28 00:37:22;;;;;;;11.00;6.10;;;6.20;99.90;;;;;;5055417;28;20200;-86
2021/04/28 00:39:48;;;;;;;10.63;5.20;;;6.10;99.90;;;;;;5054416;28;20186;-88
2021/04/28 00:42:15;;;;;;;8.03;5.13;;;6.00;99.90;;;;;;5056953;28;20537;-87
2021/04/28 00:44:42;;;;;;;9.68;5.50;;;6.00;99.90;;;;;;5055208;28;20173;-87
2021/04/28 00:47:08;;;;;;;10.55;5.43;;;6.00;99.90;;;;;;5054959;28;20205;-85
2021/04/28 00:49:37;;;;;;;7.07;4.73;;;5.90;99.90;;;;;;5055299;28;20180;-84
2021/04/28 00:52:06;;;;;;;8.13;5.80;;;5.80;99.90;;;;;;5054888;28;20526;-85
2021/04/28 00:54:32;;;;;;;8.90;4.80;;;5.80;99.90;;;;;;5054814;28;20253;-85
2021/04/28 00:56:59;;;;;;;9.63;5.57;;;5.70;99.90;;;;;;5053392;28;20197;-86
2021/04/28 00:59:26;;;;;;;11.45;4.63;;;5.70;99.90;;;;;;5055048;28;20166;-87
2021/04/28 01:01:52;;;;;;;8.40;4.93;;;5.70;99.90;;;;;;5054868;28;20236;-84
2021/04/28 01:04:17;;;;;;;7.00;4.80;;;5.50;99.90;;;;;;5053627;28;20209;-87
2021/04/28 01:06:45;;;;;;;6.70;4.67;;;5.40;99.90;;;;;;5054358;28;20208;-86
2021/04/28 01:09:13;;;;;;;8.80;5.13;;;5.40;99.90;;;;;;5053382;28;20173;-87
2021/04/28 01:11:39;;;;;;;14.73;5.18;;;5.40;99.90;;;;;;5054638;28;20178;-85
2021/04/28 01:14:11;;;;;;;6.68;4.78;;;5.40;99.90;;;;;;5054346;28;20244;-84
2021/04/28 01:16:37;;;;;;;8.32;5.10;;;5.30;99.90;;;;;;5054138;28;20229;-86
2021/04/28 01:19:05;;;;;;;5.72;4.50;;;5.30;99.90;;;;;;5054494;28;20227;-84
2021/04/28 01:21:31;;;;;;;12.65;5.35;;;5.30;99.90;;;;;;5053301;28;20178;-84
2021/04/28 01:23:57;;;;;;;6.70;4.72;;;5.30;99.90;;;;;;5054443;28;20707;-86
2021/04/28 01:26:26;;;;;;;7.70;5.28;;;5.30;99.90;;;;;;5053849;28;20212;-84
2021/04/28 01:28:53;;;;;;;8.65;6.10;;;5.30;99.90;;;;;;5054414;28;20240;-85
2021/04/28 01:31:23;;;;;;;7.15;4.80;;;5.30;99.90;;;;;;5052963;28;20170;-88
2021/04/28 01:33:54;;;;;;;10.90;5.10;;;5.20;99.90;;;;;;5054334;28;20160;-89
2021/04/28 01:36:33;;;;;;;9.20;5.25;;;5.20;99.90;;;;;;5052425;28;20228;-85
2021/04/28 01:39:04;;;;;;;7.00;5.00;;;5.10;99.90;;;;;;5054141;28;20168;-87
2021/04/28 01:41:35;;;;;;;6.65;4.72;;;5.00;99.90;;;;;;5054369;28;20180;-84
2021/04/28 01:44:01;;;;;;;9.25;5.82;;;4.90;99.90;;;;;;5054119;28;20157;-87
2021/04/28 01:46:28;;;;;;;7.53;5.10;;;4.80;99.90;;;;;;5053581;28;20243;-87
2021/04/28 01:48:54;;;;;;;7.63;5.00;;;4.80;99.90;;;;;;5054043;28;20419;-85
2021/04/28 01:51:20;;;;;;;7.30;4.50;;;4.80;99.90;;;;;;5052641;28;20173;-88
2021/04/28 01:53:46;;;;;;;9.98;4.68;;;4.80;99.90;;;;;;5052616;28;20170;-88
2021/04/28 01:56:13;;;;;;;6.47;5.20;;;4.70;99.90;;;;;;5053376;28;20236;-90
2021/04/28 01:58:40;;;;;;;9.90;5.55;;;4.70;99.90;;;;;;5052418;28;20416;-86
2021/04/28 02:01:10;;;;;;;6.97;5.75;;;4.70;99.90;;;;;;5052541;28;20173;-87
2021/04/28 02:03:36;;;;;;;12.43;5.00;;;4.60;99.90;;;;;;5052392;28;20180;-88
2021/04/28 02:06:03;;;;;;;10.05;5.95;;;4.60;99.90;;;;;;5053137;28;20611;-85
2021/04/28 02:08:29;;;;;;;8.50;4.97;;;4.60;99.90;;;;;;5051786;28;20618;-88
2021/04/28 02:10:57;;;;;;;8.70;6.13;;;4.60;99.90;;;;;;5053582;28;20177;-87
2021/04/28 02:13:23;;;;;;;9.93;6.07;;;4.50;99.90;;;;;;5052284;28;20177;-84
2021/04/28 02:16:00;;;;;;;6.85;5.35;;;4.50;99.90;;;;;;5053157;28;20196;-85
2021/04/28 02:18:29;;;;;;;10.15;5.68;;;4.40;99.90;;;;;;5053621;28;20573;-88
2021/04/28 02:21:00;;;;;;;9.60;6.00;;;4.50;99.90;;;;;;5052389;28;20618;-87
2021/04/28 02:23:26;;;;;;;13.18;6.43;;;4.40;99.90;;;;;;5052398;28;20268;-86
2021/04/28 02:25:55;;;;;;;8.57;5.65;;;4.40;99.90;;;;;;5051963;28;20615;-89
2021/04/28 02:28:20;;;;;;;9.23;5.90;;;4.30;99.90;;;;;;5053409;28;20169;-87
2021/04/28 02:30:46;;;;;;;9.07;5.80;;;4.30;99.90;;;;;;5035321;28;20185;-88
2021/04/28 02:33:12;;;;;;;7.93;6.07;;;4.30;99.90;;;;;;5053232;28;20202;-88
2021/04/28 02:35:38;;;;;;;8.55;5.72;;;4.20;99.90;;;;;;5051385;28;20186;-85
2021/04/28 02:38:20;;;;;;;9.50;5.40;;;4.10;99.90;;;;;;5053303;28;20184;-84
2021/04/28 02:40:46;;;;;;;11.15;6.43;;;4.00;99.90;;;;;;5053185;28;20168;-86
2021/04/28 02:43:13;;;;;;;14.02;6.78;;;3.90;99.90;;;;;;5051966;28;20233;-84
2021/04/28 02:45:42;;;;;;;7.30;5.07;;;3.90;99.90;;;;;;5052586;28;20197;-87
2021/04/28 02:48:08;;;;;;;11.18;5.68;;;3.90;99.90;;;;;;5053352;28;20169;-85
2021/04/28 02:50:34;;;;;;;7.32;5.90;;;3.90;99.90;;;;;;5053128;28;20173;-85
2021/04/28 02:53:00;;;;;;;7.20;4.80;;;3.80;99.90;;;;;;5052964;28;20176;-86
2021/04/28 02:55:27;;;;;;;7.80;5.05;;;3.70;99.90;;;;;;5051701;28;20256;-84
2021/04/28 02:57:53;;;;;;;9.82;5.45;;;3.70;99.90;;;;;;5035371;28;20174;-85
2021/04/28 03:00:21;;;;;;;12.75;5.82;;;3.60;99.90;;;;;;5035511;28;20235;-86
2021/04/28 03:02:48;;;;;;;8.10;5.95;;;3.60;99.90;;;;;;5052980;28;20578;-85
2021/04/28 03:05:20;;;;;;;7.95;6.47;;;3.60;99.90;;;;;;5052615;28;20200;-87
2021/04/28 03:07:46;;;;;;;9.00;6.40;;;3.60;99.90;;;;;;5051753;28;20185;-85
2021/04/28 03:10:14;;;;;;;9.05;6.18;;;3.50;99.90;;;;;;5053804;28;20201;-88
2021/04/28 03:12:41;;;;;;;10.35;5.93;;;3.50;99.90;;;;;;5036118;28;20166;-87
2021/04/28 03:15:09;;;;;;;8.25;5.55;;;3.50;99.90;;;;;;5052352;28;20170;-84
2021/04/28 03:17:36;;;;;;;13.20;7.30;;;3.50;99.90;;;;;;5055066;28;20269;-87
2021/04/28 03:20:02;;;;;;;8.02;6.20;;;3.60;99.90;;;;;;5055471;28;20177;-87
2021/04/28 03:22:28;;;;;;;8.35;6.70;;;3.50;99.90;;;;;;5039421;28;20205;-85
2021/04/28 03:24:54;;;;;;;12.27;7.70;;;3.80;99.90;;;;;;5056406;28;20629;-84
2021/04/28 03:27:23;;;;;;;9.95;7.18;;;4.00;99.90;;;;;;5056781;28;20263;-88
2021/04/28 03:29:49;;;;;;;6.65;6.00;;;4.20;99.90;;;;;;5055293;28;20534;-86
2021/04/28 03:32:14;;;;;;;11.70;6.40;;;4.40;99.90;;;;;;5055060;28;20173;-88
2021/04/28 03:34:40;;;;;;;9.17;6.40;;;4.60;99.90;;;;;;5056031;28;20174;-88
2021/04/28 03:37:06;;;;;;;8.90;5.83;;;4.80;99.90;;;;;;5038501;28;20642;-87
2021/04/28 03:39:31;;;;;;;8.10;5.97;;;4.50;99.90;;;;;;5038366;28;20177;-86
2021/04/28 03:41:58;;;;;;;7.13;6.37;;;4.40;99.90;;;;;;5056210;28;20964;-88
2021/04/28 03:44:24;;;;;;;9.35;6.20;;;4.20;99.90;;;;;;5056419;28;20208;-85
2021/04/28 03:46:49;;;;;;;7.90;5.15;;;4.10;99.90;;;;;;5055752;28;20236;-87
2021/04/28 03:49:15;;;;;;;9.73;7.30;;;4.00;99.90;;;;;;5054965;28;20189;-86
2021/04/28 03:51:42;;;;;;;13.20;5.85;;;3.90;99.90;;;;;;5038566;28;20653;-86
2021/04/28 03:54:08;;;;;;;10.10;6.05;;;3.70;99.90;;;;;;5054915;28;20185;-86
2021/04/28 03:56:34;;;;;;;8.93;6.17;;;3.50;99.90;;;;;;5055599;28;20251;-84
2021/04/28 03:59:00;;;;;;;7.82;6.53;;;3.40;99.90;;;;;;5054544;28;20511;-84
2021/04/28 04:01:25;;;;;;;9.10;6.90;;;3.40;99.90;;;;;;5055841;28;20256;-87
2021/04/28 04:03:51;;;;;;;12.00;6.10;;;3.40;99.90;;;;;;5055825;28;20408;-87
2021/04/28 04:06:17;;;;;;;8.87;6.50;;;3.40;99.90;;;;;;5054143;28;20209;-84
2021/04/28 04:08:43;;;;;;;10.73;7.60;;;3.50;99.90;;;;;;5055741;28;20178;-87
2021/04/28 04:11:08;;;;;;;8.03;6.83;;;3.50;99.90;;;;;;5055761;28;20581;-85
2021/04/28 04:13:34;;;;;;;8.80;6.30;;;3.60;99.90;;;;;;5054481;28;20256;-86
2021/04/28 04:16:00;;;;;;;9.23;6.60;;;3.80;99.90;;;;;;5055286;28;20310;-87
2021/04/28 04:18:26;;;;;;;8.60;6.90;;;4.00;99.90;;;;;;5054450;28;20169;-86
2021/04/28 04:20:52;;;;;;;11.27;7.00;;;4.10;99.90;;;;;;5055625;28;20231;-84
2021/04/28 04:23:18;;;;;;;7.57;6.78;;;4.00;99.90;;;;;;5037639;28;20185;-84
2021/04/28 04:25:43;;;;;;;9.57;6.33;;;4.10;99.90;;;;;;5053938;28;20560;-87
2021/04/28 04:28:09;;;;;;;7.50;6.50;;;4.00;99.90;;;;;;5054021;28;20169;-85
2021/04/28 04:30:34;;;;;;;14.20;6.33;;;4.10;99.90;;;;;;5055093;28;20173;-86
2021/04/28 04:33:02;;;;;;;8.00;6.30;;;4.00;99.90;;;;;;5054796;28;20518;-85
2021/04/28 04:35:27;;;;;;;9.02;6.97;;;4.10;99.90;;;;;;5054780;28;20631;-85
2021/04/28 04:37:53;;;;;;;13.20;7.60;;;4.10;99.90;;;;;;5055358;28;20237;-84
2021/04/28 04:40:19;;;;;;;8.20;6.50;;;4.10;99.90;;;;;;5021248;28;20250;-85
2021/04/28 04:42:44;;;;;;;11.70;7.33;;;3.90;99.90;;;;;;5055080;28;20669;-86
2021/04/28 04:45:10;;;;;;;11.27;7.97;;;3.90;99.90;;;;;;5053327;28;20178;-86
2021/04/28 04:47:37;;;;;;;11.70;6.20;;;3.80;99.90;;;;;;5054721;28;20235;-85
2021/04/28 04:50:04;;;;;;;12.00;6.82;;;3.70;99.90;;;;;;5055056;28;20622;-85
2021/04/28 04:52:29;;;;;;;10.25;6.85;;;3.60;99.90;;;;;;5053465;28;20166;-86
2021/04/28 04:54:55;;;;;;;12.03;7.10;;;3.60;99.90;;;;;;5054534;28;20223;-86
2021/04/28 04:57:21;;;;;;;15.17;7.33;;;3.60;99.90;;;;;;5037546;28;20197;-85
2021/04/28 04:59:46;;;;;;;8.40;7.00;;;3.50;99.90;;;;;;5053799;28;20219;-84
2021/04/28 05:02:12;;;;;;;17.57;9.07;;;3.60;99.90;;;;;;5037067;28;20181;-85
2021/04/28 05:04:37;;;;;;;9.93;8.10;;;3.70;99.90;;;;;;5054067;28;20187;-85
2021/04/28 05:07:03;;;;;;;11.37;7.70;;;3.70;99.90;;;;;;5054958;28;20250;-84
2021/04/28 05:09:29;;;;;;;11.70;7.40;;;3.80;99.90;;;;;;5053725;28;20557;-85
2021/04/28 05:11:54;;;;;;;10.80;7.67;;;3.80;99.90;;;;;;5057944;28;20176;-85
2021/04/28 05:14:20;;;;;;;11.47;7.30;;;3.70;99.90;;;;;;5053382;28;20173;-85
2021/04/28 05:16:45;;;;;;;9.90;7.30;;;3.70;99.90;;;;;;5054282;28;20247;-84
2021/04/28 05:19:11;;;;;;;10.40;7.93;;;3.70;99.90;;;;;;5053592;28;20520;-86
2021/04/28 05:21:37;;;;;;;10.30;7.23;;;3.90;99.90;;;;;;5036746;28;20545;-85
2021/04/28 05:24:03;;;;;;;14.63;8.30;;;3.90;99.90;;;;;;5054537;28;20176;-87
2021/04/28 05:26:29;;;;;;;17.83;8.50;;;4.10;99.90;;;;;;5052782;28;20667;-85
2021/04/28 05:28:55;;;;;;;11.13;8.10;;;4.30;99.90;;;;;;5054476;28;20266;-85
2021/04/28 05:31:21;;;;;;;8.53;7.43;;;4.50;99.90;;;;;;5053187;28;20419;-85
2021/04/28 05:33:47;;;;;;;11.27;8.33;;;4.70;99.90;;;;;;5054003;28;20260;-85
2021/04/28 05:36:13;;;;;;;10.45;8.93;;;4.90;99.90;;;;;;5053777;28;20232;-84
2021/04/28 05:38:40;;;;;;;10.87;8.10;;;5.40;99.90;;;;;;5053042;28;20181;-85
2021/04/28 05:41:06;;;;;;;13.77;8.20;;;5.60;99.90;;;;;;5053070;28;20292;-85
2021/04/28 05:43:33;;;;;;;10.47;7.97;;;5.80;99.90;;;;;;5035544;28;20208;-86
2021/04/28 05:46:00;;;;;;;10.23;8.07;;;6.10;99.90;;;;;;5052335;28;20869;-86
2021/04/28 05:48:26;;;;;;;8.32;6.72;;;6.20;99.90;;;;;;5054063;28;20609;-85
2021/04/28 05:50:52;;;;;;;13.17;7.00;;;6.30;99.90;;;;;;5054064;28;20201;-83
2021/04/28 05:53:17;;;;;;;14.37;7.47;;;6.50;99.90;;;;;;5054085;28;20414;-84
2021/04/28 05:55:43;;;;;;;10.17;6.87;;;6.60;99.90;;;;;;5054232;28;20200;-86
2021/04/28 05:58:09;;;;;;;8.00;6.67;;;6.80;99.90;;;;;;5035700;28;20217;-83
2021/04/28 06:00:36;;;;;;;17.08;7.07;;;6.90;99.90;;;;;;5053543;28;20169;-84
2021/04/28 06:03:03;;;;;;;10.95;7.68;;;7.00;99.90;;;;;;5052589;28;20181;-86
2021/04/28 06:05:28;;;;;;;14.43;8.00;;;7.10;99.90;;;;;;5053294;28;20641;-86
2021/04/28 06:07:54;;;;;;;11.80;6.90;;;7.30;99.90;;;;;;5053423;28;20173;-81
2021/04/28 06:10:20;;;;;;;13.77;7.93;;;7.40;99.90;;;;;;5053431;28;20942;-87
2021/04/28 06:12:46;;;;;;;11.63;7.60;;;7.40;99.90;;;;;;5053644;28;20645;-84
2021/04/28 06:15:13;;;;;;;12.52;7.15;;;7.50;99.90;;;;;;5051752;28;20415;-88
2021/04/28 06:17:43;;;;;;;9.52;7.43;;;7.60;99.90;;;;;;5052276;28;20554;-88
2021/04/28 06:20:11;;;;;;;17.50;8.32;;;7.70;99.90;;;;;;5052539;28;20272;-90
2021/04/28 06:22:37;;;;;;;11.85;7.35;;;7.90;99.90;;;;;;5052502;28;20177;-90
2021/04/28 06:25:03;;;;;;;12.90;8.70;;;8.00;99.90;;;;;;5052106;28;20260;-89
2021/04/28 06:27:29;;;;;;;15.20;8.40;;;8.10;99.90;;;;;;5035616;28;20204;-90
2021/04/28 06:29:55;;;;;;;12.97;8.70;;;8.20;99.90;;;;;;5035509;28;20645;-89
2021/04/28 06:32:20;;;;;;;14.03;8.40;;;8.30;99.90;;;;;;5052457;28;20280;-88
2021/04/28 06:34:46;;;;;;;17.50;10.00;;;8.40;99.90;;;;;;5018842;28;20184;-90
2021/04/28 06:37:12;;;;;;;19.97;9.70;;;8.50;99.90;;;;;;5052202;28;20193;-90
2021/04/28 06:39:38;;;;;;;10.43;8.17;;;8.60;99.90;;;;;;5052302;28;20618;-90
2021/04/28 06:42:04;;;;;;;11.17;7.87;;;8.80;99.90;;;;;;5052586;28;20422;-90
2021/04/28 06:44:30;;;;;;;14.33;8.47;;;8.90;99.90;;;;;;5053169;28;20446;-90
2021/04/28 06:46:56;;;;;;;16.57;10.10;;;9.00;99.90;;;;;;5052304;28;20464;-90
2021/04/28 06:49:34;;;;;;;16.42;10.10;;;9.10;99.90;;;;;;5054302;28;20677;-92
2021/04/28 06:52:00;;;;;;;13.27;10.70;;;9.20;99.90;;;;;;5053380;28;20280;-91
2021/04/28 06:54:28;;;;;;;17.53;11.00;;;9.20;99.90;;;;;;5053288;28;20408;-91
2021/04/28 06:57:09;;;;;;;15.98;10.93;;;9.50;99.90;;;;;;5056269;28;20189;-91
2021/04/28 06:59:35;;;;;;;18.08;11.00;;;9.70;99.90;;;;;;5057018;28;20177;-90
2021/04/28 07:02:00;;;;;;;15.10;11.00;;;9.80;99.90;;;;;;5039927;28;20261;-90
2021/04/28 07:04:26;;;;;;;18.03;11.57;;;9.90;99.90;;;;;;5039515;28;20416;-91
2021/04/28 07:06:59;;;;;;;14.53;11.53;;;10.00;99.90;;;;;;5057444;28;20455;-92
2021/04/28 07:09:25;;;;;;;20.67;11.60;;;10.10;99.90;;;;;;5055934;28;20891;-90
2021/04/28 07:11:51;;;;;;;17.80;11.97;;;10.20;99.90;;;;;;5058557;28;20434;-91
2021/04/28 07:14:29;;;;;;;18.30;12.40;;;10.40;99.90;;;;;;5056539;28;20172;-92
2021/04/28 07:16:57;;;;;;;19.13;12.37;;;10.60;99.90;;;;;;5039805;28;20681;-91
2021/04/28 07:19:29;;;;;;;19.83;12.67;;;10.70;99.90;;;;;;5056344;28;20416;-92
2021/04/28 07:21:56;;;;;;;18.50;12.47;;;10.80;99.90;;;;;;5056593;28;20415;-90
2021/04/28 07:24:22;;;;;;;19.77;12.60;;;10.90;99.90;;;;;;5055821;28;20419;-91
2021/04/28 07:26:54;;;;;;;22.00;12.40;;;11.10;99.90;;;;;;5055468;28;20466;-91
2021/04/28 07:29:23;;;;;;;29.03;14.37;;;11.30;99.90;;;;;;5056186;28;20196;-91
2021/04/28 07:32:26;;;;;;;25.73;14.90;;;11.30;99.90;;;;;;5059721;28;20457;-90
2021/04/28 07:42:00;;;;;;;;;;;;;;;;;;;;;
2021/04/28 08:07:44;;;;;;;21.17;13.90;;;13.30;99.90;;;;;;5615165;22;20468;-90
2021/04/28 08:16:58;;;;;;;23.20;13.50;;;14.30;99.90;;;;;;5447021;22;20531;-85
2021/04/28 08:19:27;;;;;;;18.97;13.07;;;14.80;99.90;;;;;;5037430;28;20423;-80
2021/04/28 08:21:56;;;;;;;23.17;13.17;;;15.00;99.90;;;;;;5055356;28;20174;-78
2021/04/28 08:24:23;;;;;;;15.90;11.57;;;15.20;99.90;;;;;;5055318;28;20449;-84
2021/04/28 08:26:48;;;;;;;16.43;12.43;;;15.70;99.90;;;;;;5053838;28;20443;-84
2021/04/28 08:29:14;;;;;;;13.50;11.20;;;15.90;99.90;;;;;;5055218;28;20407;-83
2021/04/28 08:31:40;;;;;;;18.33;13.80;;;16.20;99.90;;;;;;5053801;28;20177;-82
2021/04/28 08:34:05;;;;;;;18.63;12.30;;;16.10;99.90;;;;;;5055214;28;20498;-83
2021/04/28 08:36:32;;;;;;;15.90;13.63;;;16.10;99.90;;;;;;5054897;28;20213;-84
2021/04/28 08:38:58;;;;;;;15.53;13.77;;;16.30;99.90;;;;;;5059200;28;20166;-81
2021/04/28 08:41:23;;;;;;;18.43;13.97;;;16.40;99.90;;;;;;5060260;28;20416;-81
2021/04/28 08:43:49;;;;;;;17.00;13.23;;;16.50;99.90;;;;;;5060930;28;20188;-82
2021/04/28 08:46:15;;;;;;;16.17;13.17;;;16.80;99.90;;;;;;5058027;28;20201;-85
2021/04/28 08:48:41;;;;;;;18.57;13.10;;;17.10;99.90;;;;;;5054103;28;20235;-82
2021/04/28 08:51:06;;;;;;;17.73;13.70;;;17.20;99.90;;;;;;5054992;28;20888;-84
2021/04/28 08:53:34;;;;;;;19.23;13.63;;;17.10;99.90;;;;;;5053392;28;20569;-81
2021/04/28 08:56:06;;;;;;;15.67;14.07;;;17.00;99.90;;;;;;5052882;28;20565;-82
2021/04/28 08:58:32;;;;;;;15.27;13.67;;;17.40;99.60;;;;;;5053459;28;20412;-86
2021/04/28 09:00:58;;;;;;;17.90;15.00;;;17.30;98.40;;;;;;5037176;28;20513;-82
2021/04/28 09:03:41;;;;;;;19.23;14.20;;;18.00;99.00;;;;;;5054660;28;20408;-84
2021/04/28 09:06:30;;;;;;;20.40;16.00;;;18.40;98.20;;;;;;5054209;28;20239;-85
2021/04/28 09:09:06;;;;;;;18.57;16.43;;;18.10;96.20;;;;;;5054527;28;20431;-83
2021/04/28 09:11:48;;;;;;;19.50;16.03;;;18.20;95.60;;;;;;5054516;28;20798;-81
2021/04/28 09:14:21;;;;;;;25.47;20.20;;;18.70;95.70;;;;;;5054505;28;20427;-82
2021/04/28 09:16:55;;;;;;;21.40;18.07;;;18.40;92.10;;;;;;5053768;28;21031;-80
2021/04/28 09:19:35;;;;;;;29.70;22.40;;;18.60;96.10;;;;;;5054293;28;20457;-82
2021/04/28 09:22:04;;;;;;;30.13;21.83;;;19.30;91.90;;;;;;5054400;28;20388;-81
2021/04/28 09:24:51;;;;;;;17.90;15.17;;;19.60;91.30;;;;;;5053932;28;20411;-84
2021/04/28 09:27:27;;;;;;;19.63;17.03;;;19.80;88.40;;;;;;5054107;28;20428;-81
2021/04/28 09:29:55;;;;;;;17.90;15.07;;;19.60;90.20;;;;;;5054044;28;20449;-81
2021/04/28 09:32:33;;;;;;;15.37;13.30;;;19.00;90.20;;;;;;5053967;28;20470;-81
2021/04/28 09:35:15;;;;;;;20.90;13.87;;;19.70;90.00;;;;;;5053650;28;20751;-84
2021/04/28 09:37:55;;;;;;;14.00;12.70;;;20.50;85.80;;;;;;5053864;28;20798;-78
2021/04/28 09:40:38;;;;;;;14.47;11.50;;;20.50;84.70;;;;;;5053820;28;20403;-83
2021/04/28 09:43:04;;;;;;;17.23;12.50;;;20.50;76.80;;;;;;5052569;28;20494;-84
2021/04/28 09:45:51;;;;;;;13.67;11.63;;;20.70;77.80;;;;;;5053458;28;20447;-88
2021/04/28 09:48:18;;;;;;;13.50;11.00;;;20.80;78.70;;;;;;5054057;28;20545;-83
2021/04/28 09:50:44;;;;;;;12.40;11.20;;;20.80;72.40;;;;;;5053567;28;20461;-85
2021/04/28 09:53:28;;;;;;;12.33;10.17;;;21.60;75.20;;;;;;5053731;28;20486;-84
2021/04/28 09:55:54;;;;;;;11.50;9.53;;;21.50;71.90;;;;;;5052037;28;20193;-85
2021/04/28 09:58:52;;;;;;;12.20;9.40;;;20.90;67.80;;;;;;5053516;28;20523;-85
2021/04/28 10:01:34;;;;;;;12.00;9.30;;;21.30;71.00;;;;;;5053453;28;20802;-82
2021/04/28 10:04:02;;;;;;;10.23;8.67;;;22.10;66.90;;;;;;5052635;28;20453;-81
2021/04/28 10:06:50;;;;;;;9.80;8.80;;;22.00;62.90;;;;;;5051903;28;20436;-86
2021/04/28 10:09:35;;;;;;;10.57;8.90;;;21.50;59.00;;;;;;5052667;28;20440;-87
2021/04/28 10:12:04;;;;;;;10.50;7.57;;;22.00;58.50;;;;;;5053463;28;20751;-83
2021/04/28 10:14:30;;;;;;;7.93;7.13;;;21.90;56.80;;;;;;5053462;28;20412;-84
2021/04/28 10:16:59;;;;;;;8.80;7.90;;;21.50;54.70;;;;;;5051794;28;20826;-84
2021/04/28 10:19:25;;;;;;;9.47;8.30;;;21.20;56.00;;;;;;5053353;28;20502;-84
2021/04/28 10:21:53;;;;;;;8.93;7.40;;;21.00;52.40;;;;;;5053337;28;20851;-85
2021/04/28 10:24:20;;;;;;;8.67;7.77;;;21.50;53.30;;;;;;5035574;28;20912;-86
2021/04/28 10:26:48;;;;;;;8.40;7.60;;;22.00;52.30;;;;;;5052853;28;20428;-83
2021/04/28 10:29:18;;;;;;;9.07;7.93;;;22.30;53.40;;;;;;5052840;28;20404;-85
2021/04/28 10:31:48;;;;;;;7.83;7.00;;;21.70;50.60;;;;;;5036397;28;20445;-83
2021/04/28 10:34:24;;;;;;;9.13;8.23;;;21.40;52.20;;;;;;5053177;28;20786;-85
2021/04/28 10:36:55;;;;;;;11.80;8.60;;;22.40;51.50;;;;;;5051600;28;20459;-84
2021/04/28 10:39:23;;;;;;;10.43;9.43;;;22.70;52.80;;;;;;5052984;28;20749;-84
2021/04/28 10:41:48;;;;;;;11.47;8.90;;;23.20;52.50;;;;;;5053339;28;20411;-84
2021/04/28 10:44:29;;;;;;;9.67;8.50;;;23.10;52.00;;;;;;5051852;28;20416;-86
2021/04/28 10:47:14;;;;;;;9.90;8.40;;;23.30;50.70;;;;;;5051674;28;20201;-83
2021/04/28 10:50:09;;;;;;;9.37;8.37;;;22.80;49.30;;;;;;5056022;28;20392;-83
2021/04/28 10:52:40;;;;;;;10.60;8.77;;;23.40;49.90;;;;;;5051790;28;20400;-84
2021/04/28 10:55:26;;;;;;;10.50;8.90;;;23.80;48.60;;;;;;5053053;28;20758;-87
2021/04/28 10:57:52;;;;;;;10.47;7.77;;;24.70;49.10;;;;;;5052186;28;20558;-82
2021/04/28 11:00:20;;;;;;;10.03;9.03;;;24.50;48.30;;;;;;5053579;28;20458;-80
2021/04/28 11:02:48;;;;;;;10.30;9.00;;;24.70;44.50;;;;;;5053026;28;20169;-82
2021/04/28 11:05:32;;;;;;;10.53;9.40;;;23.40;44.00;;;;;;5034908;28;20850;-84
2021/04/28 11:08:00;;;;;;;11.80;9.07;;;24.50;43.70;;;;;;5053235;28;20396;-84
2021/04/28 11:10:31;;;;;;;12.03;9.80;;;24.60;45.80;;;;;;5051624;28;20759;-84
2021/04/28 11:13:15;;;;;;;10.90;9.17;;;25.00;45.40;;;;;;5052870;28;20450;-83
2021/04/28 11:15:58;;;;;;;9.70;8.70;;;24.40;43.30;;;;;;5051189;28;20928;-83
2021/04/28 11:18:36;;;;;;;11.50;9.90;;;23.90;46.20;;;;;;5052710;28;20477;-82
2021/04/28 11:21:12;;;;;;;11.80;9.70;;;24.90;46.40;;;;;;5051465;28;20424;-83
2021/04/28 11:23:57;;;;;;;8.60;7.70;;;25.10;45.40;;;;;;5052675;28;20507;-85
2021/04/28 11:26:27;;;;;;;8.40;7.60;;;24.30;41.10;;;;;;5052106;28;20446;-84
2021/04/28 11:28:58;;;;;;;8.17;7.30;;;23.10;40.30;;;;;;5051560;28;20820;-86
2021/04/28 11:31:38;;;;;;;10.13;9.13;;;24.10;43.20;;;;;;5034736;28;20514;-84
2021/04/28 11:34:34;;;;;;;8.20;7.30;;;24.60;41.60;;;;;;5052598;28;20892;-84
2021/04/28 11:37:06;;;;;;;9.10;7.17;;;25.50;42.40;;;;;;5050978;28;20471;-84
2021/04/28 11:39:47;;;;;;;10.00;7.50;;;25.80;42.90;;;;;;5052434;28;20699;-84
2021/04/28 11:42:15;;;;;;;8.07;7.27;;;26.00;40.40;;;;;;5053379;28;20892;-84
2021/04/28 11:44:52;;;;;;;9.23;8.30;;;25.10;40.40;;;;;;5055724;28;20439;-83
2021/04/28 11:47:19;;;;;;;10.17;8.07;;;25.00;41.00;;;;;;5056039;28;20902;-83
2021/04/28 11:49:47;;;;;;;10.33;8.27;;;25.80;42.10;;;;;;5054765;28;20892;-79
2021/04/28 11:52:14;;;;;;;9.50;8.47;;;25.00;39.60;;;;;;5055813;28;20471;-83
2021/04/28 11:54:41;;;;;;;9.40;7.23;;;25.00;39.50;;;;;;5054386;28;20408;-79
2021/04/28 11:57:07;;;;;;;9.23;8.33;;;26.10;43.00;;;;;;5055607;28;20455;-86
2021/04/28 11:59:36;;;;;;;9.73;7.50;;;26.40;38.60;;;;;;5054295;28;20424;-78
2021/04/28 12:02:07;;;;;;;12.43;8.30;;;26.30;41.70;;;;;;5055750;28;20439;-84
2021/04/28 12:04:34;;;;;;;9.03;8.07;;;26.70;41.90;;;;;;5055586;28;20399;-82
2021/04/28 12:07:01;;;;;;;10.30;7.60;;;26.90;39.40;;;;;;5055662;28;20787;-81
2021/04/28 12:09:49;;;;;;;9.40;8.50;;;27.00;40.00;;;;;;5055591;28;20412;-82
2021/04/28 12:12:14;;;;;;;12.17;8.10;;;27.60;39.20;;;;;;5055502;28;20396;-80
2021/04/28 12:14:43;;;;;;;10.07;9.17;;;27.70;38.50;;;;;;5055378;28;20408;-83
2021/04/28 12:17:09;;;;;;;9.73;8.43;;;27.50;37.00;;;;;;5055031;28;20559;-78
2021/04/28 12:19:35;;;;;;;9.17;8.27;;;27.70;38.20;;;;;;5055520;28;20504;-78
2021/04/28 12:22:04;;;;;;;8.37;7.50;;;28.50;36.70;;;;;;5055135;28;20169;-78
2021/04/28 12:24:37;;;;;;;11.27;8.40;;;29.00;39.20;;;;;;5054773;28;20495;-79
2021/04/28 12:27:25;;;;;;;9.20;8.30;;;29.60;39.00;;;;;;5053802;28;20434;-79
2021/04/28 12:29:55;;;;;;;10.23;9.23;;;30.10;36.50;;;;;;5055323;28;20392;-82
2021/04/28 12:32:26;;;;;;;9.57;8.27;;;28.80;37.30;;;;;;5055141;28;20407;-80
2021/04/28 12:35:16;;;;;;;11.37;10.20;;;29.20;37.30;;;;;;5054700;28;20404;-80
2021/04/28 12:37:58;;;;;;;9.80;8.80;;;29.10;35.10;;;;;;5053528;28;20459;-79
2021/04/28 12:40:33;;;;;;;12.10;9.67;;;29.20;38.30;;;;;;5054960;28;20389;-78
2021/04/28 12:42:58;;;;;;;8.87;7.97;;;28.20;35.20;;;;;;5054859;28;20400;-79
2021/04/28 12:45:25;;;;;;;10.70;8.10;;;28.40;36.30;;;;;;5054155;28;20404;-78
2021/04/28 12:47:50;;;;;;;11.20;9.53;;;28.50;37.30;;;;;;5054749;28;20177;-77
2021/04/28 12:50:21;;;;;;;11.93;9.00;;;27.50;37.60;;;;;;5054647;28;20416;-84
2021/04/28 12:52:48;;;;;;;10.43;8.67;;;27.80;35.80;;;;;;5054384;28;20610;-82
2021/04/28 12:55:35;;;;;;;11.97;8.97;;;26.30;37.60;;;;;;5053346;28;20408;-79
2021/04/28 12:58:06;;;;;;;12.63;8.10;;;25.60;37.10;;;;;;5054584;28;20438;-79
2021/04/28 13:00:34;;;;;;;14.63;7.53;;;26.90;36.70;;;;;;5054714;28;20410;-84
2021/04/28 13:03:08;;;;;;;8.97;7.60;;;28.10;38.70;;;;;;5054511;28;20404;-82
2021/04/28 13:05:36;;;;;;;9.20;8.13;;;28.50;35.30;;;;;;5052732;28;20454;-84
2021/04/28 13:08:23;;;;;;;9.80;8.10;;;28.80;34.50;;;;;;5054338;28;20442;-82
2021/04/28 13:11:07;;;;;;;8.00;7.20;;;28.30;33.60;;;;;;5053119;28;20408;-79
2021/04/28 13:13:37;;;;;;;8.43;6.60;;;28.90;34.70;;;;;;5052986;28;20919;-84
2021/04/28 13:16:04;;;;;;;10.53;8.20;;;29.20;34.90;;;;;;5053590;28;20526;-82
2021/04/28 13:18:47;;;;;;;7.50;6.37;;;29.10;33.40;;;;;;5054206;28;20420;-86
2021/04/28 13:21:42;;;;;;;9.13;6.27;;;29.70;35.80;;;;;;5053192;28;20435;-81
2021/04/28 13:24:13;;;;;;;9.73;8.17;;;29.40;34.10;;;;;;5051801;28;20781;-78
2021/04/28 13:26:56;;;;;;;13.27;8.17;;;30.10;35.80;;;;;;5052383;28;20998;-80
2021/04/28 13:29:22;;;;;;;7.80;7.10;;;30.10;34.20;;;;;;5052712;28;20416;-78
2021/04/28 13:31:48;;;;;;;8.03;7.23;;;29.90;33.60;;;;;;5053855;28;20412;-80
2021/04/28 13:34:28;;;;;;;10.03;6.43;;;30.10;32.90;;;;;;5052639;28;20989;-82